Terminal Aerodrome Forecast
Issued by NWS Wilmington, NC

Home | Current Version | Previous Version | Text Only | Print | Product List | Glossary On
Versions: 1 2 3 4 5 6 7 8 9 10 11 12 13 14 15 16 17 18 19 20
000
FTUS42 KILM 231747 CCA
TAFLBT
TAF COR
KLBT 231747Z 2318/2418 23010G15KT P6SM BKN030
     FM232300 20010G15KT P6SM SCT070 BKN120
     FM241000 23010KT P6SM BKN030
     FM241700 25011G15KT P6SM VCTS SCT025CB BKN040=

USA.gov is the U.S. government's official web portal to all federal, state and local government web resources and services.